Time;durP1;ratioP1;P1;durP2;ratioP2;P2;SDS_P1;SDS_P2;PMS_P1;PMS_P2;Temp;Humidity;BMP_temperature;BMP_pressure;BME280_temperature;BME280_humidity;BME280_pressure;Samples;Min_cycle;Max_cycle;Signal;HPM_P1;HPM_P2
2023/01/31 00:01:33;;;;;;;9.50;4.10;;;;;;;;;;5114526;28;20084;-82
2023/01/31 00:04:01;;;;;;;7.68;4.10;;;;;;;;;;5114083;28;20062;-81
2023/01/31 00:06:26;;;;;;;11.63;4.22;;;;;;;;;;5095592;28;20046;-82
2023/01/31 00:08:53;;;;;;;7.97;3.53;;;;;;;;;;5096431;28;20023;-81
2023/01/31 00:11:20;;;;;;;8.18;3.70;;;;;;;;;;5095933;28;20031;-81
2023/01/31 00:13:46;;;;;;;9.10;3.72;;;;;;;;;;5114211;28;20097;-82
2023/01/31 00:16:13;;;;;;;9.60;3.60;;;;;;;;;;5096063;28;20108;-80
2023/01/31 00:18:39;;;;;;;8.48;3.80;;;;;;;;;;5114331;28;20039;-82
2023/01/31 00:21:15;;;;;;;7.93;3.92;;;;;;;;;;5114035;28;20040;-82
2023/01/31 00:23:42;;;;;;;9.35;3.42;;;;;;;;;;5114341;28;20062;-82
2023/01/31 00:26:16;;;;;;;6.80;3.63;;;;;;;;;;5095835;28;20040;-81
2023/01/31 00:28:43;;;;;;;8.40;3.35;;;;;;;;;;5113992;28;20080;-81
2023/01/31 00:31:11;;;;;;;8.27;3.53;;;;;;;;;;5114350;28;20040;-82
2023/01/31 00:33:40;;;;;;;6.57;3.47;;;;;;;;;;5114017;28;20077;-81
2023/01/31 00:36:08;;;;;;;7.03;3.00;;;;;;;;;;5095646;28;20032;-81
2023/01/31 00:38:36;;;;;;;7.05;3.13;;;;;;;;;;5113877;28;20176;-81
2023/01/31 00:41:02;;;;;;;9.75;3.33;;;;;;;;;;5095341;28;20122;-81
2023/01/31 00:43:29;;;;;;;5.47;3.25;;;;;;;;;;5095888;28;20043;-82
2023/01/31 00:45:55;;;;;;;7.30;3.03;;;;;;;;;;5113942;28;20039;-81
2023/01/31 00:48:23;;;;;;;6.72;3.05;;;;;;;;;;5096455;28;20115;-81
2023/01/31 00:50:48;;;;;;;6.00;3.08;;;;;;;;;;5118085;28;20119;-81
2023/01/31 00:53:16;;;;;;;6.93;3.10;;;;;;;;;;5118269;28;20111;-81
2023/01/31 00:55:42;;;;;;;6.15;3.13;;;;;;;;;;5099543;28;20036;-81
2023/01/31 00:58:07;;;;;;;8.25;3.95;;;;;;;;;;5117746;28;20048;-81
2023/01/31 01:00:33;;;;;;;7.20;2.97;;;;;;;;;;5099735;28;20126;-81
2023/01/31 01:02:58;;;;;;;6.90;3.00;;;;;;;;;;5099657;28;20031;-82
2023/01/31 01:05:24;;;;;;;9.73;3.55;;;;;;;;;;5099140;28;20058;-81
2023/01/31 01:07:49;;;;;;;5.00;2.60;;;;;;;;;;5099231;28;20027;-79
2023/01/31 01:10:15;;;;;;;10.80;3.05;;;;;;;;;;5117851;28;20058;-82
2023/01/31 01:12:40;;;;;;;6.30;2.90;;;;;;;;;;5117536;28;20077;-82
2023/01/31 01:15:06;;;;;;;7.63;3.00;;;;;;;;;;5117469;28;20387;-81
2023/01/31 01:17:32;;;;;;;7.45;3.00;;;;;;;;;;5117769;28;20032;-82
2023/01/31 01:20:02;;;;;;;8.38;3.03;;;;;;;;;;5082190;28;20031;-81
2023/01/31 01:22:28;;;;;;;6.80;3.13;;;;;;;;;;5099492;28;20102;-81
2023/01/31 01:24:56;;;;;;;6.47;2.83;;;;;;;;;;5081888;28;20039;-81
2023/01/31 01:27:21;;;;;;;6.85;3.30;;;;;;;;;;5099145;28;20143;-82
2023/01/31 01:29:47;;;;;;;8.52;2.70;;;;;;;;;;5099038;28;20077;-82
2023/01/31 01:32:13;;;;;;;10.35;3.08;;;;;;;;;;5117256;28;20449;-81
2023/01/31 01:34:38;;;;;;;8.23;3.17;;;;;;;;;;5098802;28;20027;-81
2023/01/31 01:37:18;;;;;;;8.90;2.97;;;;;;;;;;5099253;28;20050;-81
2023/01/31 01:39:48;;;;;;;9.55;2.92;;;;;;;;;;5117407;28;20067;-81
2023/01/31 01:42:15;;;;;;;6.53;3.10;;;;;;;;;;5117292;28;20066;-81
2023/01/31 01:44:54;;;;;;;8.50;2.97;;;;;;;;;;5098644;28;20031;-81
2023/01/31 01:47:44;;;;;;;8.02;2.95;;;;;;;;;;5117339;28;20492;-81
2023/01/31 01:50:38;;;;;;;6.93;2.97;;;;;;;;;;5098736;28;20043;-81
2023/01/31 01:53:12;;;;;;;7.70;2.90;;;;;;;;;;5109506;28;20048;-81
2023/01/31 01:55:46;;;;;;;7.35;3.15;;;;;;;;;;5081635;28;20134;-81
2023/01/31 01:58:46;;;;;;;8.18;3.28;;;;;;;;;;5098576;28;20507;-81
2023/01/31 02:01:15;;;;;;;5.28;2.67;;;;;;;;;;5089244;28;20462;-81
2023/01/31 02:03:46;;;;;;;7.50;2.85;;;;;;;;;;5116933;28;20407;-81
2023/01/31 02:06:12;;;;;;;6.75;3.05;;;;;;;;;;5098212;28;20042;-81
2023/01/31 02:08:41;;;;;;;8.73;2.90;;;;;;;;;;5098505;28;20027;-81
2023/01/31 02:11:22;;;;;;;7.78;2.67;;;;;;;;;;5098208;28;20122;-82
2023/01/31 02:13:52;;;;;;;6.90;2.58;;;;;;;;;;5098345;28;20461;-81
2023/01/31 02:16:17;;;;;;;6.88;2.70;;;;;;;;;;5098233;28;20034;-80
2023/01/31 02:18:44;;;;;;;6.72;2.80;;;;;;;;;;5116641;28;20074;-81
2023/01/31 02:21:25;;;;;;;5.20;2.25;;;;;;;;;;5097841;28;20051;-81
2023/01/31 02:24:06;;;;;;;4.35;1.92;;;;;;;;;;5116593;28;20060;-81
2023/01/31 02:27:07;;;;;;;6.97;2.17;;;;;;;;;;5097912;28;20114;-81
2023/01/31 02:30:10;;;;;;;4.07;1.70;;;;;;;;;;5098004;28;20130;-81
2023/01/31 02:32:35;;;;;;;6.97;2.30;;;;;;;;;;5098185;28;20039;-80
2023/01/31 02:35:07;;;;;;;6.38;2.10;;;;;;;;;;5097941;28;20123;-81
2023/01/31 02:37:38;;;;;;;7.15;2.17;;;;;;;;;;5097853;28;20035;-81
2023/01/31 02:40:20;;;;;;;3.55;2.10;;;;;;;;;;5080383;28;20074;-81
2023/01/31 02:43:14;;;;;;;3.65;1.75;;;;;;;;;;5097958;28;20499;-81
2023/01/31 02:46:08;;;;;;;5.07;2.10;;;;;;;;;;5097652;28;20180;-81
2023/01/31 02:48:34;;;;;;;4.32;2.00;;;;;;;;;;5097318;28;20074;-81
2023/01/31 02:51:04;;;;;;;7.07;1.90;;;;;;;;;;5097823;28;20062;-81
2023/01/31 02:53:42;;;;;;;7.65;2.10;;;;;;;;;;5097616;28;20625;-81
2023/01/31 02:56:18;;;;;;;11.32;2.45;;;;;;;;;;5097086;28;20039;-81
2023/01/31 02:59:11;;;;;;;5.78;2.20;;;;;;;;;;5097554;28;20039;-81
2023/01/31 03:01:41;;;;;;;4.88;1.70;;;;;;;;;;5088365;28;20035;-80
2023/01/31 03:04:11;;;;;;;3.42;1.83;;;;;;;;;;5096843;28;20081;-80
2023/01/31 03:06:36;;;;;;;4.07;1.83;;;;;;;;;;5097132;28;20506;-81
2023/01/31 03:09:03;;;;;;;10.07;2.28;;;;;;;;;;5080918;28;20027;-80
2023/01/31 03:11:45;;;;;;;4.18;2.40;;;;;;;;;;5096063;28;20530;-81
2023/01/31 03:14:29;;;;;;;6.82;2.28;;;;;;;;;;5079988;28;20028;-81
2023/01/31 03:20:17;;;;;;;5.65;2.10;;;;;;;;;;5115310;28;20051;-81
2023/01/31 03:22:47;;;;;;;4.95;2.20;;;;;;;;;;5088124;28;20050;-81
2023/01/31 03:25:17;;;;;;;5.85;2.13;;;;;;;;;;5096487;28;20032;-80
2023/01/31 03:28:02;;;;;;;3.60;1.85;;;;;;;;;;5096628;28;20499;-80
2023/01/31 03:30:47;;;;;;;4.00;2.05;;;;;;;;;;5096916;28;20046;-81
2023/01/31 03:33:18;;;;;;;7.75;2.05;;;;;;;;;;5115080;28;20031;-80
2023/01/31 03:35:49;;;;;;;5.97;2.15;;;;;;;;;;5079593;28;20042;-81
2023/01/31 03:38:26;;;;;;;6.47;2.00;;;;;;;;;;5096475;28;20036;-80
2023/01/31 03:41:04;;;;;;;4.93;2.10;;;;;;;;;;5095969;28;20023;-80
2023/01/31 03:43:42;;;;;;;4.07;2.00;;;;;;;;;;5096288;28;20555;-80
2023/01/31 03:46:38;;;;;;;5.10;2.10;;;;;;;;;;5096738;28;20036;-81
2023/01/31 03:49:09;;;;;;;6.65;2.03;;;;;;;;;;5090349;28;20031;-81
2023/01/31 03:51:39;;;;;;;4.45;1.98;;;;;;;;;;5097557;28;20040;-81
2023/01/31 03:54:08;;;;;;;5.32;1.75;;;;;;;;;;5097123;28;20035;-81
2023/01/31 03:56:41;;;;;;;6.20;1.90;;;;;;;;;;5115564;28;20039;-80
2023/01/31 03:59:12;;;;;;;8.43;2.50;;;;;;;;;;5096970;28;20047;-81
2023/01/31 04:01:43;;;;;;;4.78;2.42;;;;;;;;;;5096749;28;20575;-81
2023/01/31 04:04:20;;;;;;;4.45;2.25;;;;;;;;;;5096489;28;20035;-81
2023/01/31 04:06:46;;;;;;;5.85;2.00;;;;;;;;;;5096470;28;20572;-81
2023/01/31 04:09:12;;;;;;;7.13;2.20;;;;;;;;;;5096209;28;20380;-81
2023/01/31 04:11:40;;;;;;;6.28;2.17;;;;;;;;;;5114475;28;20042;-81
2023/01/31 04:14:07;;;;;;;4.50;1.77;;;;;;;;;;5096135;28;20110;-80
2023/01/31 04:16:32;;;;;;;4.90;2.10;;;;;;;;;;5114627;28;20031;-80
2023/01/31 04:18:58;;;;;;;5.78;2.08;;;;;;;;;;5114475;28;20395;-80
2023/01/31 04:21:23;;;;;;;5.40;2.10;;;;;;;;;;5114024;28;20035;-79
2023/01/31 04:23:49;;;;;;;12.13;2.80;;;;;;;;;;5095570;28;20110;-80
2023/01/31 04:26:14;;;;;;;4.53;1.75;;;;;;;;;;5114255;28;20040;-80
2023/01/31 04:28:40;;;;;;;5.20;2.03;;;;;;;;;;5114357;28;20034;-80
2023/01/31 04:31:05;;;;;;;7.00;2.15;;;;;;;;;;5096184;28;20080;-80
2023/01/31 04:33:31;;;;;;;7.63;2.08;;;;;;;;;;5114026;28;20042;-80
2023/01/31 04:35:57;;;;;;;5.68;2.38;;;;;;;;;;5113964;28;20035;-80
2023/01/31 04:38:22;;;;;;;8.05;1.95;;;;;;;;;;5114259;28;20118;-80
2023/01/31 04:40:48;;;;;;;5.38;2.13;;;;;;;;;;5078332;28;20122;-80
2023/01/31 04:43:13;;;;;;;8.27;2.10;;;;;;;;;;5094526;28;20484;-80
2023/01/31 04:45:39;;;;;;;5.40;1.90;;;;;;;;;;5093405;28;20029;-80
2023/01/31 04:48:05;;;;;;;3.85;1.83;;;;;;;;;;5075744;28;20123;-80
2023/01/31 04:50:30;;;;;;;8.20;2.30;;;;;;;;;;5093843;28;20036;-80
2023/01/31 04:52:56;;;;;;;6.28;2.13;;;;;;;;;;5093701;28;20039;-80
2023/01/31 04:55:21;;;;;;;6.10;2.10;;;;;;;;;;5093895;28;20028;-79
2023/01/31 04:57:47;;;;;;;6.50;2.00;;;;;;;;;;5093688;28;20170;-80
2023/01/31 05:00:13;;;;;;;8.75;2.45;;;;;;;;;;5093849;28;20036;-79
2023/01/31 05:02:38;;;;;;;6.20;2.15;;;;;;;;;;5093927;28;20032;-80
2023/01/31 05:05:05;;;;;;;6.80;2.22;;;;;;;;;;5093848;28;20051;-80
2023/01/31 05:07:31;;;;;;;7.13;2.47;;;;;;;;;;5075821;28;20476;-80
2023/01/31 05:09:56;;;;;;;8.88;2.38;;;;;;;;;;5075461;28;20034;-80
2023/01/31 05:12:21;;;;;;;4.88;2.30;;;;;;;;;;5093505;28;20036;-79
2023/01/31 05:14:47;;;;;;;5.85;2.20;;;;;;;;;;5092418;28;20024;-80
2023/01/31 05:17:13;;;;;;;5.22;2.20;;;;;;;;;;5076042;28;20098;-80
2023/01/31 05:19:41;;;;;;;6.95;2.10;;;;;;;;;;5093463;28;20028;-80
2023/01/31 05:22:06;;;;;;;4.65;2.00;;;;;;;;;;5097189;28;20054;-79
2023/01/31 05:24:32;;;;;;;4.47;2.10;;;;;;;;;;5102273;28;20430;-80
2023/01/31 05:27:00;;;;;;;7.85;2.28;;;;;;;;;;5101842;28;20032;-79
2023/01/31 05:29:31;;;;;;;4.68;1.85;;;;;;;;;;5103576;28;20088;-80
2023/01/31 05:31:58;;;;;;;5.82;2.10;;;;;;;;;;5102937;28;20048;-80
2023/01/31 05:34:25;;;;;;;6.25;2.20;;;;;;;;;;5103144;28;20040;-80
2023/01/31 05:36:51;;;;;;;5.35;2.28;;;;;;;;;;5106405;28;20078;-79
2023/01/31 05:39:17;;;;;;;6.55;2.15;;;;;;;;;;5087065;28;20032;-79
2023/01/31 05:41:43;;;;;;;8.00;2.47;;;;;;;;;;5087407;28;20038;-79
2023/01/31 05:44:09;;;;;;;6.20;2.20;;;;;;;;;;5087824;28;20515;-79
2023/01/31 05:46:35;;;;;;;4.18;2.08;;;;;;;;;;5106373;28;20035;-80
2023/01/31 05:49:01;;;;;;;5.80;2.22;;;;;;;;;;5087552;28;20040;-80
2023/01/31 05:51:27;;;;;;;7.68;2.20;;;;;;;;;;5105399;28;20067;-80
2023/01/31 05:53:53;;;;;;;6.78;2.20;;;;;;;;;;5106549;28;20079;-80
2023/01/31 05:56:19;;;;;;;8.00;2.10;;;;;;;;;;5105467;28;20028;-79
2023/01/31 05:58:49;;;;;;;10.57;2.00;;;;;;;;;;5105879;28;20400;-79
2023/01/31 06:01:19;;;;;;;6.93;2.20;;;;;;;;;;5107149;28;20034;-79
2023/01/31 06:03:45;;;;;;;5.03;2.60;;;;;;;;;;5088360;28;20112;-79
2023/01/31 06:06:10;;;;;;;8.60;2.55;;;;;;;;;;5070828;28;20032;-79
2023/01/31 06:08:36;;;;;;;11.95;2.50;;;;;;;;;;5105627;28;20028;-80
2023/01/31 06:11:03;;;;;;;9.75;2.50;;;;;;;;;;5086877;28;20040;-79
2023/01/31 06:13:32;;;;;;;11.02;2.63;;;;;;;;;;5104852;28;20028;-80
2023/01/31 06:15:57;;;;;;;6.63;2.33;;;;;;;;;;5105113;28;20043;-79
2023/01/31 06:18:23;;;;;;;3.47;1.95;;;;;;;;;;5087744;28;20036;-79
2023/01/31 06:20:49;;;;;;;8.82;2.55;;;;;;;;;;5105760;28;20043;-79
2023/01/31 06:23:14;;;;;;;6.05;2.20;;;;;;;;;;5105685;28;20400;-79
2023/01/31 06:25:40;;;;;;;6.15;2.00;;;;;;;;;;5087832;28;20036;-79
2023/01/31 06:28:05;;;;;;;7.82;2.15;;;;;;;;;;5087500;28;20032;-80
2023/01/31 06:30:31;;;;;;;9.45;2.00;;;;;;;;;;5105280;28;20069;-79
2023/01/31 06:33:00;;;;;;;6.22;2.08;;;;;;;;;;5105331;28;20036;-80
2023/01/31 06:35:26;;;;;;;5.70;2.20;;;;;;;;;;5104836;28;20039;-79
2023/01/31 06:37:51;;;;;;;7.43;1.80;;;;;;;;;;5086387;28;20039;-79
2023/01/31 06:40:17;;;;;;;6.07;2.00;;;;;;;;;;5103993;28;20036;-79
2023/01/31 06:42:42;;;;;;;4.43;1.65;;;;;;;;;;5104385;28;20028;-79
2023/01/31 06:45:08;;;;;;;6.10;2.05;;;;;;;;;;5103696;28;20036;-79
2023/01/31 06:47:36;;;;;;;4.75;1.70;;;;;;;;;;5102774;28;20543;-79
2023/01/31 06:50:03;;;;;;;7.00;1.90;;;;;;;;;;5104184;28;20056;-79
2023/01/31 06:52:28;;;;;;;8.82;2.00;;;;;;;;;;5086570;28;20039;-79
2023/01/31 06:54:53;;;;;;;6.68;1.77;;;;;;;;;;5086296;28;20035;-79
2023/01/31 06:57:19;;;;;;;7.82;2.00;;;;;;;;;;5085641;28;20059;-79
2023/01/31 06:59:44;;;;;;;4.32;1.65;;;;;;;;;;5102485;28;20091;-79
2023/01/31 07:02:10;;;;;;;4.60;1.52;;;;;;;;;;5082563;28;20035;-79
2023/01/31 07:04:35;;;;;;;4.97;1.50;;;;;;;;;;5099229;28;20043;-78
2023/01/31 07:07:01;;;;;;;5.72;1.90;;;;;;;;;;5101476;28;20106;-79
2023/01/31 07:09:26;;;;;;;6.82;1.80;;;;;;;;;;5101623;28;20035;-79
2023/01/31 07:11:52;;;;;;;6.95;1.70;;;;;;;;;;5101293;28;20424;-79
2023/01/31 07:14:17;;;;;;;5.63;1.80;;;;;;;;;;5100594;28;20028;-79
2023/01/31 07:16:43;;;;;;;7.45;2.05;;;;;;;;;;5084151;28;20492;-79
2023/01/31 07:19:08;;;;;;;7.00;2.38;;;;;;;;;;5102078;28;20031;-79
2023/01/31 07:21:37;;;;;;;5.57;1.50;;;;;;;;;;5080827;28;20047;-79
2023/01/31 07:24:03;;;;;;;15.77;3.55;;;;;;;;;;5099226;28;20073;-78
2023/01/31 07:26:29;;;;;;;11.40;3.40;;;;;;;;;;5101489;28;20039;-80
2023/01/31 07:28:54;;;;;;;10.82;2.90;;;;;;;;;;5066346;28;20043;-79
2023/01/31 07:31:20;;;;;;;4.80;1.70;;;;;;;;;;5100739;28;20032;-79
2023/01/31 07:33:45;;;;;;;5.75;2.10;;;;;;;;;;5101285;28;20081;-79
2023/01/31 07:36:13;;;;;;;5.38;1.70;;;;;;;;;;5101575;28;20032;-79
2023/01/31 07:38:39;;;;;;;6.45;1.70;;;;;;;;;;5101525;28;20040;-79
2023/01/31 07:41:07;;;;;;;8.38;1.48;;;;;;;;;;5099232;28;20044;-79
2023/01/31 07:43:33;;;;;;;4.13;2.13;;;;;;;;;;5101593;28;20038;-79
2023/01/31 07:45:58;;;;;;;5.82;1.65;;;;;;;;;;5098576;28;20092;-79
2023/01/31 07:48:24;;;;;;;6.10;1.42;;;;;;;;;;5100468;28;20112;-78
2023/01/31 07:50:52;;;;;;;7.97;1.70;;;;;;;;;;5102046;28;20043;-79
2023/01/31 07:53:19;;;;;;;6.55;1.60;;;;;;;;;;5101870;28;20032;-79
2023/01/31 07:55:47;;;;;;;7.13;1.70;;;;;;;;;;5101581;28;20059;-79
2023/01/31 07:58:14;;;;;;;7.13;1.50;;;;;;;;;;5100436;28;20096;-79
2023/01/31 08:03:33;;;;;;;3.80;1.10;;;;;;;;;;5100858;28;20070;-79
2023/01/31 08:06:07;;;;;;;7.30;1.38;;;;;;;;;;5081137;28;20039;-79
2023/01/31 08:08:33;;;;;;;7.00;1.55;;;;;;;;;;5099391;28;20067;-79
2023/01/31 08:10:58;;;;;;;6.40;1.38;;;;;;;;;;5081939;28;20084;-79
2023/01/31 08:13:25;;;;;;;5.57;1.30;;;;;;;;;;5100698;28;20480;-79
2023/01/31 08:15:52;;;;;;;5.68;1.50;;;;;;;;;;5067158;28;20032;-80
2023/01/31 08:18:18;;;;;;;6.60;1.40;;;;;;;;;;5100631;28;20043;-79
2023/01/31 08:20:43;;;;;;;6.30;1.70;;;;;;;;;;5083391;28;20036;-79
2023/01/31 08:23:09;;;;;;;3.45;1.45;;;;;;;;;;5102323;28;20074;-79
2023/01/31 08:25:35;;;;;;;8.65;1.67;;;;;;;;;;5100531;28;20043;-79
2023/01/31 08:28:01;;;;;;;4.68;1.50;;;;;;;;;;5102312;28;20057;-80
2023/01/31 08:30:27;;;;;;;8.13;1.60;;;;;;;;;;5101630;28;20483;-80
2023/01/31 08:32:53;;;;;;;6.25;1.60;;;;;;;;;;5083412;28;20052;-79
2023/01/31 08:35:18;;;;;;;7.13;1.65;;;;;;;;;;5102174;28;20065;-79
2023/01/31 08:37:44;;;;;;;7.43;1.42;;;;;;;;;;5084208;28;20042;-80
2023/01/31 08:40:10;;;;;;;4.47;1.40;;;;;;;;;;5101783;28;20040;-80
2023/01/31 08:42:35;;;;;;;5.32;1.70;;;;;;;;;;5101388;28;20036;-79
2023/01/31 08:45:01;;;;;;;5.63;1.58;;;;;;;;;;5102695;28;20039;-79
2023/01/31 08:47:26;;;;;;;5.10;1.48;;;;;;;;;;5083741;28;20396;-80
2023/01/31 08:49:52;;;;;;;6.43;1.40;;;;;;;;;;5083771;28;20035;-81
2023/01/31 08:52:17;;;;;;;3.42;1.25;;;;;;;;;;5084686;28;20095;-79
2023/01/31 08:54:43;;;;;;;8.25;1.60;;;;;;;;;;5101370;28;20040;-79
2023/01/31 08:57:08;;;;;;;5.30;1.38;;;;;;;;;;5067718;28;20059;-80
2023/01/31 08:59:34;;;;;;;6.63;1.73;;;;;;;;;;5102131;28;20040;-79
2023/01/31 09:02:00;;;;;;;5.18;1.70;;;;;;;;;;5081930;28;20032;-78
2023/01/31 09:04:25;;;;;;;6.82;1.50;;;;;;;;;;5091966;28;20036;-79
2023/01/31 09:06:50;;;;;;;5.55;1.65;;;;;;;;;;5102020;28;20035;-79
2023/01/31 09:09:16;;;;;;;8.63;1.63;;;;;;;;;;5120368;28;20046;-79
2023/01/31 09:11:41;;;;;;;6.63;1.45;;;;;;;;;;5123721;28;20038;-79
2023/01/31 09:14:07;;;;;;;5.38;1.55;;;;;;;;;;5124078;28;20448;-80
2023/01/31 09:16:32;;;;;;;7.78;1.70;;;;;;;;;;5104811;28;20038;-79
2023/01/31 09:18:58;;;;;;;12.85;1.90;;;;;;;;;;5105925;28;20084;-79
2023/01/31 09:21:23;;;;;;;7.10;2.25;;;;;;;;;;5104735;28;20027;-79
2023/01/31 09:23:55;;;;;;;5.32;1.55;;;;;;;;;;5124250;28;20507;-82
2023/01/31 09:26:20;;;;;;;7.50;1.92;;;;;;;;;;5125791;28;20031;-80
2023/01/31 09:28:48;;;;;;;10.77;3.15;;;;;;;;;;5127260;28;20031;-79
2023/01/31 09:31:15;;;;;;;9.43;2.15;;;;;;;;;;5125156;28;20447;-79
2023/01/31 09:33:41;;;;;;;14.13;1.73;;;;;;;;;;5104279;28;20377;-80
2023/01/31 09:36:09;;;;;;;6.50;1.73;;;;;;;;;;5122866;28;20096;-78
2023/01/31 09:38:35;;;;;;;6.28;1.88;;;;;;;;;;5106644;28;20114;-78
2023/01/31 09:41:15;;;;;;;9.23;1.77;;;;;;;;;;5102865;28;20031;-79
2023/01/31 09:43:44;;;;;;;8.85;2.22;;;;;;;;;;5124365;28;20027;-80
2023/01/31 09:46:15;;;;;;;6.38;1.70;;;;;;;;;;5123759;28;20039;-79
2023/01/31 09:48:46;;;;;;;5.25;2.00;;;;;;;;;;5115133;28;20036;-80
2023/01/31 09:51:14;;;;;;;8.90;1.70;;;;;;;;;;5104241;28;20512;-79
2023/01/31 09:53:41;;;;;;;6.55;1.27;;;;;;;;;;5104151;28;20039;-79
2023/01/31 09:56:28;;;;;;;7.03;1.55;;;;;;;;;;5103835;28;20036;-80
2023/01/31 09:59:15;;;;;;;7.00;1.75;;;;;;;;;;5104021;28;20032;-79
2023/01/31 10:01:47;;;;;;;6.78;1.77;;;;;;;;;;5085129;28;20173;-79
2023/01/31 10:04:33;;;;;;;6.93;1.48;;;;;;;;;;5102669;28;20036;-80
2023/01/31 10:07:24;;;;;;;9.60;1.75;;;;;;;;;;5085841;28;20036;-80
2023/01/31 10:10:25;;;;;;;7.18;1.58;;;;;;;;;;5103445;28;20032;-78
2023/01/31 10:12:56;;;;;;;5.25;1.33;;;;;;;;;;5088832;28;20044;-82
2023/01/31 10:15:35;;;;;;;5.97;1.45;;;;;;;;;;5084621;28;20035;-80
2023/01/31 10:18:07;;;;;;;6.85;1.70;;;;;;;;;;5103448;28;20090;-81
2023/01/31 10:20:51;;;;;;;8.52;1.80;;;;;;;;;;5084325;28;20063;-80
2023/01/31 10:23:28;;;;;;;5.47;1.63;;;;;;;;;;5085094;28;20036;-81
2023/01/31 10:25:59;;;;;;;5.90;1.42;;;;;;;;;;5103083;28;20040;-81
2023/01/31 10:28:45;;;;;;;6.57;1.52;;;;;;;;;;5084396;28;20400;-80
2023/01/31 10:31:15;;;;;;;8.57;2.30;;;;;;;;;;5084104;28;20070;-80
2023/01/31 10:33:55;;;;;;;5.07;1.65;;;;;;;;;;5103185;28;20039;-80
2023/01/31 10:36:23;;;;;;;3.97;1.52;;;;;;;;;;5100417;28;20036;-81
2023/01/31 10:39:13;;;;;;;6.22;1.85;;;;;;;;;;5083524;28;20036;-80
2023/01/31 10:41:57;;;;;;;5.65;1.80;;;;;;;;;;5081669;28;20074;-81
2023/01/31 10:44:40;;;;;;;;;;;;;;;;;;5102115;28;20028;-79
2023/01/31 10:47:15;;;;;;;5.45;1.80;;;;;;;;;;5101451;28;19900;-80
2023/01/31 10:49:45;;;;;;;6.25;2.17;;;;;;;;;;5100953;28;20036;-80
2023/01/31 10:52:37;;;;;;;7.05;2.10;;;;;;;;;;5100463;28;20071;-80
2023/01/31 10:55:21;;;;;;;4.68;2.15;;;;;;;;;;5099427;28;20111;-80
2023/01/31 10:57:48;;;;;;;7.57;1.80;;;;;;;;;;5099323;28;20027;-80
2023/01/31 11:00:21;;;;;;;3.85;1.90;;;;;;;;;;5099849;28;20024;-80
2023/01/31 11:02:47;;;;;;;5.30;1.85;;;;;;;;;;5099615;28;20092;-80
2023/01/31 11:05:19;;;;;;;3.90;1.80;;;;;;;;;;5098718;28;20109;-81
2023/01/31 11:07:45;;;;;;;4.95;2.08;;;;;;;;;;5100723;28;20035;-80
2023/01/31 11:10:23;;;;;;;5.32;1.88;;;;;;;;;;5100376;28;20040;-80
2023/01/31 11:13:00;;;;;;;5.32;2.10;;;;;;;;;;5099491;28;20119;-80
2023/01/31 11:15:28;;;;;;;5.57;1.90;;;;;;;;;;5096525;28;20035;-80
2023/01/31 11:17:59;;;;;;;6.15;2.28;;;;;;;;;;5079307;28;20093;-80
2023/01/31 11:20:34;;;;;;;7.53;2.30;;;;;;;;;;5099163;28;20051;-80
2023/01/31 11:23:01;;;;;;;4.15;1.92;;;;;;;;;;5078848;28;20036;-81
2023/01/31 11:25:29;;;;;;;5.10;1.98;;;;;;;;;;5095447;28;20375;-81
2023/01/31 11:28:02;;;;;;;5.70;1.80;;;;;;;;;;5076831;28;20032;-81
2023/01/31 11:30:34;;;;;;;6.45;2.17;;;;;;;;;;5076584;28;20127;-82
2023/01/31 11:33:01;;;;;;;9.40;2.30;;;;;;;;;;5094143;28;20035;-81
2023/01/31 11:35:34;;;;;;;4.93;2.00;;;;;;;;;;5059631;28;20044;-81
2023/01/31 11:38:16;;;;;;;6.03;2.00;;;;;;;;;;5095053;28;20036;-81
2023/01/31 11:40:41;;;;;;;5.38;2.05;;;;;;;;;;5075333;28;20040;-80
2023/01/31 11:43:13;;;;;;;4.18;1.77;;;;;;;;;;5075887;28;20381;-79
2023/01/31 11:45:44;;;;;;;6.95;2.10;;;;;;;;;;5094056;28;20411;-80
2023/01/31 11:48:12;;;;;;;5.63;1.92;;;;;;;;;;5094088;28;20039;-80
2023/01/31 11:50:41;;;;;;;5.78;1.98;;;;;;;;;;5094024;28;20126;-80
2023/01/31 11:53:28;;;;;;;8.15;2.20;;;;;;;;;;5094310;28;20039;-81
2023/01/31 11:56:00;;;;;;;14.23;2.58;;;;;;;;;;5075257;28;20032;-82
2023/01/31 11:58:33;;;;;;;8.65;2.17;;;;;;;;;;5093870;28;20040;-82
2023/01/31 12:01:05;;;;;;;6.60;2.00;;;;;;;;;;5094099;28;20032;-81
2023/01/31 12:03:31;;;;;;;7.82;2.30;;;;;;;;;;5094067;28;20036;-82
2023/01/31 12:06:02;;;;;;;4.00;2.08;;;;;;;;;;5075436;28;20047;-82
2023/01/31 12:08:30;;;;;;;8.65;2.40;;;;;;;;;;5093596;28;20084;-81
2023/01/31 12:10:56;;;;;;;6.55;2.17;;;;;;;;;;5075348;28;20395;-82
2023/01/31 12:13:22;;;;;;;8.43;2.20;;;;;;;;;;5075645;28;20032;-82
2023/01/31 12:16:03;;;;;;;7.20;2.60;;;;;;;;;;5075337;28;20039;-82
2023/01/31 12:18:37;;;;;;;6.35;2.38;;;;;;;;;;5094028;28;20499;-82
2023/01/31 12:21:21;;;;;;;8.48;2.58;;;;;;;;;;5075586;28;20068;-82
2023/01/31 12:23:49;;;;;;;5.93;2.45;;;;;;;;;;5076046;28;20036;-81
2023/01/31 12:26:33;;;;;;;8.45;2.53;;;;;;;;;;5093475;28;20028;-81
2023/01/31 12:29:07;;;;;;;7.55;2.28;;;;;;;;;;5093742;28;20028;-82
2023/01/31 12:32:15;;;;;;;5.90;2.13;;;;;;;;;;5093593;28;20111;-81
2023/01/31 12:34:59;;;;;;;5.40;2.30;;;;;;;;;;5093455;28;20113;-81
2023/01/31 12:37:36;;;;;;;6.75;2.22;;;;;;;;;;5093327;28;20111;-82
2023/01/31 12:40:09;;;;;;;5.53;2.40;;;;;;;;;;5092780;28;20054;-81
2023/01/31 12:42:55;;;;;;;4.07;1.80;;;;;;;;;;5058607;28;20036;-82
2023/01/31 12:45:32;;;;;;;7.00;2.38;;;;;;;;;;5097314;28;20050;-81
2023/01/31 12:48:13;;;;;;;5.65;2.20;;;;;;;;;;5080081;28;20032;-81
2023/01/31 12:50:58;;;;;;;11.50;2.60;;;;;;;;;;5097223;28;20404;-81
2023/01/31 12:53:58;;;;;;;4.65;2.38;;;;;;;;;;5097203;28;20092;-80
2023/01/31 12:56:46;;;;;;;7.82;2.60;;;;;;;;;;5096907;28;20119;-81
2023/01/31 12:59:31;;;;;;;5.85;2.50;;;;;;;;;;5078705;28;20036;-82
2023/01/31 13:02:27;;;;;;;5.03;2.20;;;;;;;;;;5096899;28;20035;-82
2023/01/31 13:05:06;;;;;;;7.00;2.50;;;;;;;;;;5096926;28;20036;-82
2023/01/31 13:07:37;;;;;;;7.78;2.63;;;;;;;;;;5096883;28;20038;-82
2023/01/31 13:10:15;;;;;;;5.72;2.38;;;;;;;;;;5078503;28;20074;-82
2023/01/31 13:12:42;;;;;;;5.00;2.33;;;;;;;;;;5078462;28;20032;-82
2023/01/31 13:15:22;;;;;;;6.47;2.50;;;;;;;;;;5096368;28;20093;-82
2023/01/31 13:17:56;;;;;;;6.43;2.38;;;;;;;;;;5096264;28;20472;-82
2023/01/31 13:20:40;;;;;;;6.22;2.20;;;;;;;;;;5096043;28;20446;-82
2023/01/31 13:23:16;;;;;;;7.53;2.58;;;;;;;;;;5097327;28;20039;-82
2023/01/31 13:25:49;;;;;;;4.70;2.42;;;;;;;;;;5096620;28;20157;-82
2023/01/31 13:28:24;;;;;;;7.75;2.72;;;;;;;;;;5096575;28;20541;-81
2023/01/31 13:30:55;;;;;;;5.82;2.58;;;;;;;;;;5096613;28;20060;-82
2023/01/31 13:33:49;;;;;;;6.50;2.33;;;;;;;;;;5096714;28;20123;-82
2023/01/31 13:36:18;;;;;;;;;;;;;;;;;;5079113;28;20046;-79
2023/01/31 13:38:44;;;;;;;5.72;2.58;;;;;;;;;;5078569;28;19938;-83
2023/01/31 13:41:19;;;;;;;7.47;2.70;;;;;;;;;;5096322;28;20496;-82
2023/01/31 13:43:45;;;;;;;4.72;2.60;;;;;;;;;;5078306;28;20039;-82
2023/01/31 13:46:14;;;;;;;5.50;2.33;;;;;;;;;;5096159;28;20126;-82
2023/01/31 13:48:57;;;;;;;4.25;2.47;;;;;;;;;;5077959;28;20032;-82
2023/01/31 13:51:39;;;;;;;6.65;2.40;;;;;;;;;;5096144;28;20484;-82
2023/01/31 13:54:07;;;;;;;8.48;2.63;;;;;;;;;;5096176;28;20515;-80
2023/01/31 13:56:35;;;;;;;4.63;2.28;;;;;;;;;;5095580;28;20040;-81
2023/01/31 13:59:01;;;;;;;5.18;2.40;;;;;;;;;;5096428;28;20028;-82
2023/01/31 14:01:35;;;;;;;6.05;2.60;;;;;;;;;;5096282;28;20395;-81
2023/01/31 14:04:16;;;;;;;;;;;;;;;;;;5096321;28;20385;-78
2023/01/31 14:07:06;;;;;;;4.55;2.10;;;;;;;;;;5078027;28;19912;-81
2023/01/31 14:09:37;;;;;;;4.30;2.20;;;;;;;;;;5078031;28;20079;-81
2023/01/31 14:12:08;;;;;;;5.35;2.88;;;;;;;;;;5095878;28;20044;-81
2023/01/31 14:14:38;;;;;;;4.38;2.42;;;;;;;;;;5077754;28;20111;-81
2023/01/31 14:17:26;;;;;;;7.30;2.88;;;;;;;;;;5095335;28;20042;-80
2023/01/31 14:19:51;;;;;;;6.65;2.80;;;;;;;;;;5039035;28;20067;-81
2023/01/31 14:22:20;;;;;;;3.88;2.15;;;;;;;;;;5095325;28;20044;-81
2023/01/31 14:24:45;;;;;;;6.65;2.58;;;;;;;;;;5076948;28;20074;-81
2023/01/31 14:27:41;;;;;;;3.35;2.22;;;;;;;;;;5077582;28;20032;-79
2023/01/31 14:30:10;;;;;;;6.40;2.60;;;;;;;;;;5095611;28;20056;-79
2023/01/31 14:32:57;;;;;;;5.28;2.47;;;;;;;;;;5076949;28;20035;-81
2023/01/31 14:35:46;;;;;;;5.60;2.60;;;;;;;;;;5077280;28;20032;-83
2023/01/31 14:38:33;;;;;;;6.57;2.60;;;;;;;;;;5076405;28;20135;-84
2023/01/31 14:41:20;;;;;;;7.57;2.80;;;;;;;;;;5095340;28;20035;-82
2023/01/31 14:44:00;;;;;;;7.68;2.80;;;;;;;;;;5077366;28;20040;-81
2023/01/31 14:46:28;;;;;;;6.65;2.75;;;;;;;;;;5095176;28;20412;-81
2023/01/31 14:49:21;;;;;;;6.97;2.60;;;;;;;;;;5095172;28;20059;-81
2023/01/31 14:52:07;;;;;;;6.05;2.75;;;;;;;;;;5094407;28;20043;-81
2023/01/31 14:54:41;;;;;;;4.97;2.83;;;;;;;;;;5093837;28;20050;-81
2023/01/31 14:57:15;;;;;;;6.13;2.80;;;;;;;;;;5076082;28;20039;-81
2023/01/31 14:59:57;;;;;;;5.45;2.85;;;;;;;;;;5094784;28;20415;-80
2023/01/31 15:02:39;;;;;;;5.45;2.90;;;;;;;;;;5095009;28;20400;-81
2023/01/31 15:05:10;;;;;;;5.90;2.67;;;;;;;;;;5094527;28;20036;-81
2023/01/31 15:08:04;;;;;;;8.05;2.60;;;;;;;;;;5093443;28;20058;-81
2023/01/31 15:10:57;;;;;;;4.95;2.40;;;;;;;;;;5093829;28;20085;-80
2023/01/31 15:13:48;;;;;;;5.60;2.40;;;;;;;;;;5094731;28;20039;-81
2023/01/31 15:16:27;;;;;;;5.82;2.50;;;;;;;;;;5094242;28;20035;-80